TAF Text Data
IDs:
Format:
Raw Decoded Include METAR

Data at: 1238 UTC 23 Jun 2021

KHUL 231120Z 2312/2412 32006KT P6SM SCT080 BKN200
  FM231330 31009G16KT P6SM SCT040
  FM231800 29010G17KT P6SM SCT060
  FM232300 29005KT P6SM FEW150
  FM240200 VRB02KT P6SM FEW220